Terminal Aerodrome Forecast
Issued by NWS

Home | Current Version | Previous Version | Text Only | Print | Product List | Glossary Off
Versions: 1 2 3 4 5 6 7 8 9 10 11 12 13 14 15

000
FTUS43 KGRB 192300
TAFATW
TAF
KATW 192320Z 2000/2024 15013KT P6SM FEW250
     FM200200 17010KT P6SM SCT100 BKN250 WS012/19040KT
     FM200800 18010KT P6SM SCT040 OVC100 WS012/21040KT
     FM201200 19009KT P6SM BKN040 OVC100 WS014/22030KT
      TEMPO 2012/2016 6SM -RA BR
     FM201600 21008KT 6SM HZ BKN035 BKN080=

USA.gov is the U.S. government's official web portal to all federal, state and local government web resources and services.